Time;durP1;ratioP1;P1;durP2;ratioP2;P2;SDS_P1;SDS_P2;PMS_P1;PMS_P2;Temp;Humidity;BMP_temperature;BMP_pressure;BME280_temperature;BME280_humidity;BME280_pressure;Samples;Min_cycle;Max_cycle;Signal;HPM_P1;HPM_P2
2023/09/25 00:02:24;;;;;;;3.17;1.50;;;;;;;16.18;64.79;100968.53;10303898;28;20105;-66
2023/09/25 00:07:25;;;;;;;2.15;1.35;;;;;;;16.07;64.65;100950.69;10301243;28;20624;-66
2023/09/25 00:12:26;;;;;;;3.03;1.60;;;;;;;16.05;64.63;100951.84;10304248;28;20056;-64
2023/09/25 00:17:28;;;;;;;2.95;1.58;;;;;;;16.07;64.90;100960.59;10303300;28;20155;-66
2023/09/25 00:22:30;;;;;;;2.55;1.60;;;;;;;16.04;64.92;100960.88;10300045;28;20460;-66
2023/09/25 00:27:32;;;;;;;1.80;1.25;;;;;;;16.02;65.09;100958.34;10299596;28;20851;-67
2023/09/25 00:32:34;;;;;;;1.90;1.70;;;;;;;15.90;65.28;100941.53;10301930;28;20068;-65
2023/09/25 00:37:37;;;;;;;2.47;1.42;;;;;;;15.97;65.50;100959.75;10300622;28;20078;-64
2023/09/25 00:42:40;;;;;;;1.70;1.42;;;;;;;15.90;65.41;100960.31;10297713;28;20697;-65
2023/09/25 00:47:43;;;;;;;1.67;1.38;;;;;;;15.88;65.37;100961.44;10300210;28;20105;-64
2023/09/25 00:52:45;;;;;;;2.47;1.70;;;;;;;15.85;65.59;100965.28;10300809;28;20076;-64
2023/09/25 00:57:48;;;;;;;2.88;1.50;;;;;;;15.81;65.62;100963.84;10301500;28;20081;-67
2023/09/25 01:02:50;;;;;;;2.03;1.83;;;;;;;15.76;65.57;100957.16;10297878;28;20122;-64
2023/09/25 01:07:52;;;;;;;1.63;1.10;;;;;;;15.51;65.72;100932.59;10292643;28;20688;-65
2023/09/25 01:12:54;;;;;;;1.98;1.42;;;;;;;15.64;65.83;100948.41;10295850;28;20057;-68
2023/09/25 01:17:57;;;;;;;1.70;1.10;;;;;;;15.63;66.16;100949.41;10295245;28;20541;-66
2023/09/25 01:22:59;;;;;;;1.75;1.10;;;;;;;15.53;66.43;100936.81;10296720;28;20676;-68
2023/09/25 01:28:00;;;;;;;1.55;1.10;;;;;;;15.48;66.20;100928.34;10309198;28;20527;-67
2023/09/25 01:33:03;;;;;;;3.13;1.95;;;;;;;15.53;66.36;100939.47;10296821;28;20604;-67
2023/09/25 01:38:04;;;;;;;1.90;1.20;;;;;;;15.49;66.31;100932.72;10294174;28;20539;-67
2023/09/25 01:43:06;;;;;;;2.30;1.38;;;;;;;15.39;66.25;100923.81;10298659;28;20049;-65
2023/09/25 01:48:07;;;;;;;1.60;1.42;;;;;;;15.34;66.36;100928.72;10296818;28;20050;-67
2023/09/25 01:53:09;;;;;;;2.28;1.25;;;;;;;15.20;66.03;100912.03;10297754;28;20136;-66
2023/09/25 01:58:11;;;;;;;1.45;1.20;;;;;;;15.18;66.49;100932.78;10293437;28;20049;-67
2023/09/25 02:03:12;;;;;;;2.72;1.52;;;;;;;15.13;66.64;100929.69;10296974;28;20118;-68
2023/09/25 02:08:14;;;;;;;1.35;1.13;;;;;;;15.13;66.99;100928.81;10294576;28;20428;-66
2023/09/25 02:13:16;;;;;;;1.63;1.15;;;;;;;15.09;67.03;100914.84;10296078;28;20065;-67
2023/09/25 02:18:17;;;;;;;1.25;1.10;;;;;;;15.08;66.81;100915.81;10293495;28;20555;-65
2023/09/25 02:23:19;;;;;;;2.05;1.10;;;;;;;15.03;66.85;100913.56;10296811;28;22166;-66
2023/09/25 02:28:21;;;;;;;2.55;1.67;;;;;;;15.01;67.11;100914.66;10300018;28;21427;-67
2023/09/25 02:33:23;;;;;;;3.10;1.80;;;;;;;14.97;66.80;100907.91;10303025;28;20140;-65
2023/09/25 02:38:24;;;;;;;1.92;0.98;;;;;;;14.85;67.35;100899.94;10304751;28;20048;-66
2023/09/25 02:43:26;;;;;;;1.48;1.00;;;;;;;14.93;67.22;100901.94;10302683;28;21090;-70
2023/09/25 02:48:28;;;;;;;2.28;1.08;;;;;;;14.92;67.16;100910.13;10301128;28;20056;-68
2023/09/25 02:53:29;;;;;;;3.35;1.00;;;;;;;14.84;67.79;100902.75;10304462;28;20046;-66
2023/09/25 02:58:31;;;;;;;2.10;0.95;;;;;;;14.77;67.64;100893.56;10304185;28;20137;-63
2023/09/25 03:03:32;;;;;;;2.53;1.30;;;;;;;14.74;67.90;100905.41;10303885;28;20573;-67
2023/09/25 03:08:34;;;;;;;1.65;1.20;;;;;;;14.79;67.67;100905.00;10301201;28;20054;-67
2023/09/25 03:13:35;;;;;;;2.60;0.95;;;;;;;14.75;67.94;100909.78;10304529;28;20191;-65
2023/09/25 03:18:37;;;;;;;1.65;1.10;;;;;;;14.70;68.08;100913.84;10304576;28;20065;-66
2023/09/25 03:23:42;;;;;;;1.70;0.95;;;;;;;14.64;68.30;100902.69;10304259;28;20850;-65
2023/09/25 03:28:45;;;;;;;2.30;1.33;;;;;;;14.67;68.51;100915.81;10304082;28;20483;-65
2023/09/25 03:33:47;;;;;;;1.60;1.20;;;;;;;14.64;68.61;100902.69;10304102;28;20060;-66
2023/09/25 03:38:48;;;;;;;1.98;1.50;;;;;;;14.61;68.28;100902.13;10304000;28;20042;-64
2023/09/25 03:43:50;;;;;;;2.78;1.63;;;;;;;14.53;68.52;100886.66;10304139;28;20057;-67
2023/09/25 03:48:52;;;;;;;2.30;1.75;;;;;;;14.64;68.20;100915.25;10301388;28;20061;-65
2023/09/25 03:53:53;;;;;;;2.45;1.52;;;;;;;14.62;68.56;100919.88;10304535;28;20228;-66
2023/09/25 03:58:55;;;;;;;2.88;1.50;;;;;;;14.55;68.94;100903.47;10304614;28;20072;-64
2023/09/25 04:03:57;;;;;;;2.35;1.67;;;;;;;14.56;68.37;100904.28;10305625;28;20715;-67
2023/09/25 04:08:58;;;;;;;3.70;2.00;;;;;;;14.61;68.39;100911.00;10305359;28;20857;-68
2023/09/25 04:14:01;;;;;;;1.60;1.50;;;;;;;14.53;69.02;100904.56;10302917;28;20453;-66
2023/09/25 04:19:04;;;;;;;1.45;1.35;;;;;;;14.55;68.73;100906.13;10304242;28;20046;-66
2023/09/25 04:24:10;;;;;;;1.87;1.30;;;;;;;14.47;68.58;100906.81;10300062;28;20065;-66
2023/09/25 04:29:17;;;;;;;1.67;1.42;;;;;;;14.53;69.21;100915.28;10306047;28;20045;-66
2023/09/25 04:34:19;;;;;;;2.15;1.60;;;;;;;14.50;69.14;100911.03;10310789;28;20052;-65
2023/09/25 04:39:20;;;;;;;2.65;2.08;;;;;;;14.45;69.38;100916.78;10334503;28;20099;-68
2023/09/25 04:44:22;;;;;;;3.92;2.17;;;;;;;14.44;69.29;100912.44;10361440;28;20050;-64
2023/09/25 04:49:23;;;;;;;1.80;1.70;;;;;;;14.41;69.27;100923.41;10317993;28;20069;-65
2023/09/25 04:54:24;;;;;;;3.10;1.98;;;;;;;14.28;69.75;100909.38;10312469;28;20054;-66
2023/09/25 04:59:27;;;;;;;2.78;2.28;;;;;;;14.37;69.88;100923.81;10308441;28;20052;-66
2023/09/25 05:04:28;;;;;;;3.13;2.08;;;;;;;14.31;69.48;100927.84;10306052;28;20627;-67
2023/09/25 05:09:30;;;;;;;3.35;2.13;;;;;;;14.24;69.35;100921.31;10303516;28;20065;-68
2023/09/25 05:14:31;;;;;;;2.03;1.70;;;;;;;14.20;69.34;100919.88;10295622;28;20050;-66
2023/09/25 05:19:33;;;;;;;2.60;1.80;;;;;;;14.26;69.68;100938.09;10301963;28;20058;-64
2023/09/25 05:24:35;;;;;;;1.90;1.70;;;;;;;14.26;69.57;100938.97;10312854;28;20054;-62
2023/09/25 05:29:37;;;;;;;3.40;2.17;;;;;;;14.22;69.58;100932.16;10319473;28;20566;-64
2023/09/25 05:34:38;;;;;;;3.13;1.98;;;;;;;14.21;70.02;100937.66;10303967;28;20054;-64
2023/09/25 05:39:40;;;;;;;3.78;2.22;;;;;;;14.25;69.78;100936.41;10301026;28;20049;-65
2023/09/25 05:44:41;;;;;;;2.58;1.70;;;;;;;14.31;69.81;100949.28;10302776;28;21074;-64
2023/09/25 05:49:43;;;;;;;2.40;2.20;;;;;;;14.18;69.30;100927.19;10304146;28;20053;-62
2023/09/25 05:54:45;;;;;;;1.80;1.50;;;;;;;14.30;69.54;100943.06;10308738;28;20122;-63
2023/09/25 05:59:47;;;;;;;2.83;1.90;;;;;;;14.38;69.63;100950.47;10304376;28;20057;-63
2023/09/25 06:04:49;;;;;;;1.88;1.60;;;;;;;14.31;69.73;100939.41;10300547;28;20056;-63
2023/09/25 06:09:50;;;;;;;1.70;1.40;;;;;;;14.55;69.75;100956.19;10298606;28;20061;-64
2023/09/25 06:14:52;;;;;;;1.42;1.30;;;;;;;14.64;69.83;100945.56;10302001;28;20176;-65
2023/09/25 06:19:54;;;;;;;2.30;1.40;;;;;;;14.89;68.46;100958.66;10300236;28;20106;-64
2023/09/25 06:24:56;;;;;;;1.73;1.30;;;;;;;14.95;68.38;100952.75;10298406;28;20057;-63
2023/09/25 06:29:57;;;;;;;3.33;1.17;;;;;;;15.15;67.23;100954.50;10290247;28;20093;-62
2023/09/25 06:34:59;;;;;;;2.85;1.10;;;;;;;15.30;66.68;100962.19;10296993;28;20128;-63
2023/09/25 06:40:00;;;;;;;2.08;1.30;;;;;;;15.43;66.60;100969.97;10299720;28;20053;-63
2023/09/25 06:45:03;;;;;;;1.13;1.00;;;;;;;15.47;66.12;100964.19;10299465;28;20061;-65
2023/09/25 06:50:05;;;;;;;3.97;2.13;;;;;;;15.65;65.96;100971.56;10295586;28;20050;-63
2023/09/25 06:55:07;;;;;;;6.28;1.90;;;;;;;15.76;66.23;100974.13;10299539;28;20042;-63
2023/09/25 07:00:09;;;;;;;5.90;1.88;;;;;;;15.84;66.12;100960.06;10298558;28;20057;-65
2023/09/25 07:05:11;;;;;;;4.05;1.58;;;;;;;15.99;64.97;100968.50;10297765;28;20077;-64
2023/09/25 07:10:13;;;;;;;2.80;1.80;;;;;;;16.05;64.16;100957.22;10297722;28;20050;-65
2023/09/25 07:15:15;;;;;;;1.80;1.52;;;;;;;16.23;64.37;100968.09;10297454;28;20118;-64
2023/09/25 07:20:17;;;;;;;3.17;1.60;;;;;;;16.21;63.05;100957.50;10306166;28;20065;-64
2023/09/25 07:25:18;;;;;;;1.60;1.20;;;;;;;16.24;62.56;100970.63;10302675;28;20057;-64
2023/09/25 07:30:20;;;;;;;3.30;1.83;;;;;;;16.26;63.73;100963.28;10307107;28;20053;-67
2023/09/25 07:35:22;;;;;;;2.30;1.13;;;;;;;16.41;62.77;100978.97;10305436;28;20393;-63
2023/09/25 07:40:24;;;;;;;2.42;1.50;;;;;;;16.31;61.86;100980.81;10304444;28;20395;-63
2023/09/25 07:45:25;;;;;;;1.55;1.40;;;;;;;16.52;62.66;100976.09;10302079;28;20493;-65
2023/09/25 07:50:27;;;;;;;4.20;1.58;;;;;;;16.65;61.48;100964.16;10302950;28;20046;-64
2023/09/25 07:55:28;;;;;;;4.30;1.30;;;;;;;16.77;61.96;100971.09;10304054;28;20121;-63
2023/09/25 08:00:40;;;;;;;2.95;1.67;;;;;;;16.94;62.16;100970.34;10305511;28;20054;-64
2023/09/25 08:05:42;;;;;;;2.95;1.50;;;;;;;17.15;60.57;100980.03;10346381;28;21571;-64
2023/09/25 08:10:47;;;;;;;3.65;1.70;;;;;;;17.27;61.34;100991.44;10303260;28;20107;-63
2023/09/25 08:15:49;;;;;;;1.58;1.33;;;;;;;17.40;59.67;100980.31;10303806;28;20709;-65
2023/09/25 08:20:50;;;;;;;2.67;1.30;;;;;;;17.38;58.88;100985.00;10304104;28;20061;-64
2023/09/25 08:25:53;;;;;;;5.43;1.70;;;;;;;17.62;57.00;100996.03;10302922;28;20054;-64
2023/09/25 08:30:54;;;;;;;1.60;1.23;;;;;;;17.77;55.87;100992.81;10300571;28;20056;-64
2023/09/25 08:35:56;;;;;;;3.05;1.40;;;;;;;17.94;55.72;101004.63;10305317;28;20077;-63
2023/09/25 08:40:59;;;;;;;2.90;1.27;;;;;;;18.04;55.17;100989.25;10300081;28;20057;-65
2023/09/25 08:46:01;;;;;;;1.53;1.10;;;;;;;18.30;54.97;100991.16;10300027;28;20653;-65
2023/09/25 08:51:04;;;;;;;2.72;1.58;;;;;;;18.54;55.09;100985.97;10297757;28;20056;-63
2023/09/25 08:56:06;;;;;;;1.80;1.20;;;;;;;18.59;53.88;100950.44;10298756;28;20076;-64
2023/09/25 09:01:09;;;;;;;2.00;1.30;;;;;;;18.93;53.22;100979.31;10301008;28;20054;-63
2023/09/25 09:06:11;;;;;;;3.00;1.70;;;;;;;19.17;53.46;100970.50;10303639;28;21545;-64
2023/09/25 09:11:13;;;;;;;2.97;1.30;;;;;;;19.32;51.27;100969.84;10299735;28;20053;-66
2023/09/25 09:16:16;;;;;;;2.38;1.40;;;;;;;19.45;52.75;100962.13;10301747;28;20049;-63
2023/09/25 09:21:24;;;;;;;3.17;1.48;;;;;;;19.69;51.85;100969.44;10302020;28;20050;-64
2023/09/25 09:26:26;;;;;;;3.05;1.30;;;;;;;19.92;50.80;100966.13;10300790;28;20052;-65
2023/09/25 09:31:30;;;;;;;1.90;1.33;;;;;;;20.10;50.62;100958.72;10302565;28;20068;-65
2023/09/25 09:36:32;;;;;;;2.17;1.33;;;;;;;20.22;49.39;100952.97;10299859;28;20057;-65
2023/09/25 09:41:35;;;;;;;4.60;1.00;;;;;;;20.49;48.59;100963.44;10304079;28;20085;-66
2023/09/25 09:46:38;;;;;;;1.48;1.00;;;;;;;20.65;47.62;100950.88;10302158;28;20057;-65
2023/09/25 09:51:43;;;;;;;2.55;1.30;;;;;;;20.84;47.55;100950.53;10302552;28;20088;-65
2023/09/25 09:56:49;;;;;;;1.95;1.00;;;;;;;21.02;47.02;100935.91;10297724;28;20650;-64
2023/09/25 10:01:50;;;;;;;1.48;0.93;;;;;;;21.50;47.16;100947.53;10302312;28;20145;-65
2023/09/25 10:06:57;;;;;;;2.15;1.10;;;;;;;22.00;44.29;100934.47;10299357;28;20140;-63
2023/09/25 10:12:02;;;;;;;2.50;1.20;;;;;;;22.03;46.24;100925.16;10300796;28;20054;-65
2023/09/25 10:17:05;;;;;;;3.40;1.33;;;;;;;22.01;44.68;100932.63;10303299;28;20056;-65
2023/09/25 10:22:16;;;;;;;2.83;1.48;;;;;;;22.10;44.31;100928.81;10303233;28;20050;-64
2023/09/25 10:27:18;;;;;;;2.42;1.10;;;;;;;22.47;43.84;100916.28;10297335;28;20057;-64
2023/09/25 10:32:36;;;;;;;1.25;0.95;;;;;;;22.82;43.44;100913.88;10296522;28;20042;-66
2023/09/25 10:37:37;;;;;;;2.72;1.05;;;;;;;23.10;42.40;100907.75;10291973;28;20156;-64
2023/09/25 10:42:39;;;;;;;2.25;1.13;;;;;;;23.24;42.95;100889.75;10296320;28;20053;-65
2023/09/25 10:47:41;;;;;;;3.95;1.50;;;;;;;23.57;42.18;100895.56;10294828;28;20146;-65
2023/09/25 10:52:42;;;;;;;2.40;0.98;;;;;;;23.82;40.26;100892.44;10305961;28;20062;-65
2023/09/25 10:57:44;;;;;;;2.47;1.45;;;;;;;23.97;40.86;100887.78;10301224;28;20179;-64
2023/09/25 11:02:46;;;;;;;2.92;1.00;;;;;;;24.25;39.20;100895.13;10303770;28;20085;-65
2023/09/25 11:07:48;;;;;;;1.80;0.77;;;;;;;24.74;38.78;100884.34;10301369;28;20053;-65
2023/09/25 11:12:50;;;;;;;2.55;1.00;;;;;;;25.11;38.33;100890.38;10304489;28;20037;-64
2023/09/25 11:17:52;;;;;;;1.95;1.10;;;;;;;25.24;37.33;100874.91;10306508;28;20072;-64
2023/09/25 11:23:01;;;;;;;2.83;0.90;;;;;;;25.62;36.53;100884.44;10303750;28;20045;-64
2023/09/25 11:28:24;;;;;;;1.77;1.00;;;;;;;25.86;36.65;100871.25;10303811;28;20398;-65
2023/09/25 11:33:28;;;;;;;1.50;0.90;;;;;;;26.22;35.11;100881.75;10300370;28;20057;-64
2023/09/25 11:38:30;;;;;;;0.93;0.63;;;;;;;26.37;34.65;100881.50;10296015;28;20100;-65
2023/09/25 11:43:32;;;;;;;3.70;0.97;;;;;;;26.77;35.59;100862.31;10304301;28;20054;-68
2023/09/25 11:48:36;;;;;;;1.47;0.87;;;;;;;27.59;33.67;100874.50;10319095;28;20157;-67
2023/09/25 11:53:37;;;;;;;2.35;0.98;;;;;;;28.10;33.44;100865.25;10300081;28;20297;-66
2023/09/25 11:58:39;;;;;;;2.15;1.23;;;;;;;28.52;31.87;100857.25;10300166;28;20057;-66
2023/09/25 12:03:41;;;;;;;1.70;0.90;;;;;;;28.88;31.06;100858.31;10302406;28;20673;-66
2023/09/25 12:08:43;;;;;;;5.20;1.17;;;;;;;29.52;31.19;100849.66;10305735;28;20133;-65
2023/09/25 12:13:45;;;;;;;;;;;;;;;29.63;29.37;100839.75;10305603;28;20057;-64
2023/09/25 12:18:46;;;;;;;2.92;0.98;;;;;;;29.79;30.06;100838.25;10305143;28;19926;-66
2023/09/25 12:23:48;;;;;;;2.88;1.00;;;;;;;30.58;29.19;100835.13;10298851;28;20397;-65
2023/09/25 12:28:50;;;;;;;3.72;1.00;;;;;;;31.90;26.21;100817.72;10302498;28;20049;-66
2023/09/25 12:33:52;;;;;;;;;;;;;;;32.72;24.94;100818.88;10298553;28;20053;-65
2023/09/25 12:38:53;;;;;;;3.40;0.77;;;;;;;32.28;26.73;100813.34;10303122;28;20016;-68
2023/09/25 12:43:55;;;;;;;1.25;0.80;;;;;;;31.80;25.15;100812.06;10302637;28;20077;-66
2023/09/25 12:48:56;;;;;;;1.77;1.02;;;;;;;31.29;26.48;100812.88;10300606;28;20096;-66
2023/09/25 12:53:58;;;;;;;1.00;0.70;;;;;;;31.64;26.12;100798.06;10304383;28;20396;-66
2023/09/25 12:59:00;;;;;;;2.53;1.00;;;;;;;31.55;26.85;100780.31;10299999;28;20493;-66
2023/09/25 13:04:02;;;;;;;1.33;0.98;;;;;;;31.84;24.96;100785.72;10315140;28;20061;-65
2023/09/25 13:09:05;;;;;;;1.00;0.50;;;;;;;32.02;25.61;100792.84;10300628;28;20139;-64
2023/09/25 13:14:06;;;;;;;2.40;0.70;;;;;;;32.15;24.42;100797.19;10299302;28;20053;-65
2023/09/25 13:19:08;;;;;;;1.10;0.75;;;;;;;32.41;24.41;100796.44;10298057;28;20116;-65
2023/09/25 13:24:09;;;;;;;1.02;0.52;;;;;;;32.97;25.04;100800.97;10301212;28;20050;-65
2023/09/25 13:29:11;;;;;;;1.45;0.93;;;;;;;33.03;23.00;100791.66;10300315;28;20139;-65
2023/09/25 13:34:12;;;;;;;0.85;0.50;;;;;;;32.73;23.72;100784.72;10301707;28;20547;-65
2023/09/25 13:39:14;;;;;;;1.88;1.00;;;;;;;32.36;24.51;100782.59;10301844;28;20054;-64
2023/09/25 13:44:15;;;;;;;1.90;0.90;;;;;;;33.40;23.45;100785.38;10300428;28;20243;-65
2023/09/25 13:49:17;;;;;;;2.28;0.65;;;;;;;33.03;23.26;100791.66;10299060;28;20103;-65
2023/09/25 13:54:18;;;;;;;2.10;0.57;;;;;;;31.42;25.96;100777.88;10299518;28;20504;-65
2023/09/25 13:59:20;;;;;;;1.17;0.70;;;;;;;30.62;26.83;100786.03;10298759;28;20069;-63
2023/09/25 14:04:22;;;;;;;1.88;0.73;;;;;;;30.05;26.77;100781.25;10301825;28;20810;-65
2023/09/25 14:09:24;;;;;;;1.73;0.73;;;;;;;29.49;28.68;100783.47;10298501;28;20050;-65
2023/09/25 14:14:43;;;;;;;1.40;0.95;;;;;;;28.78;29.07;100789.56;10296758;28;20054;-62
2023/09/25 14:19:45;;;;;;;2.13;1.20;;;;;;;28.25;31.37;100773.75;10300228;28;20166;-64
2023/09/25 14:24:46;;;;;;;;;;;;;;;27.77;30.54;100784.31;10304369;28;20070;-64
2023/09/25 14:29:48;;;;;;;1.67;0.75;;;;;;;27.42;31.38;100765.69;10308112;28;19929;-62
2023/09/25 14:34:49;;;;;;;2.30;0.95;;;;;;;26.91;31.70;100769.41;10303966;28;20159;-63
2023/09/25 14:39:51;;;;;;;2.03;0.80;;;;;;;26.73;32.47;100773.69;10296415;28;20050;-64
2023/09/25 14:44:52;;;;;;;2.30;1.10;;;;;;;26.44;32.63;100775.91;10305381;28;20042;-62
2023/09/25 14:49:54;;;;;;;1.42;0.90;;;;;;;26.05;34.06;100771.41;10307750;28;20476;-63
2023/09/25 14:54:55;;;;;;;2.10;0.70;;;;;;;25.90;34.03;100769.72;10306100;28;20137;-63
2023/09/25 14:59:57;;;;;;;1.85;1.10;;;;;;;25.74;33.99;100762.81;10300007;28;20540;-64
2023/09/25 15:04:58;;;;;;;1.85;0.93;;;;;;;25.56;34.91;100768.91;10303149;28;20085;-64
2023/09/25 15:10:02;;;;;;;2.33;0.90;;;;;;;25.28;36.15;100760.06;10306908;28;20143;-65
2023/09/25 15:15:04;;;;;;;2.13;1.10;;;;;;;25.21;35.89;100771.78;10309500;28;20275;-64
2023/09/25 15:20:07;;;;;;;2.27;1.30;;;;;;;25.01;35.91;100763.59;10307669;28;20050;-63
2023/09/25 15:25:09;;;;;;;2.88;1.00;;;;;;;24.83;36.45;100768.78;10304654;28;20119;-63
2023/09/25 15:30:10;;;;;;;1.42;1.00;;;;;;;24.57;36.79;100753.19;10305573;28;22367;-67
2023/09/25 15:35:12;;;;;;;2.38;1.10;;;;;;;24.33;37.50;100769.00;10303421;28;20053;-68
2023/09/25 15:40:14;;;;;;;1.40;1.10;;;;;;;24.18;38.86;100766.41;10308040;28;20058;-69
2023/09/25 15:45:15;;;;;;;2.42;0.75;;;;;;;24.09;38.42;100762.16;10306263;28;20069;-69
2023/09/25 15:50:17;;;;;;;2.05;1.17;;;;;;;24.00;38.73;100759.63;10306387;28;20073;-70
2023/09/25 15:55:18;;;;;;;2.03;1.38;;;;;;;23.88;38.81;100761.19;10305111;28;20099;-70
2023/09/25 16:00:20;;;;;;;2.75;1.08;;;;;;;23.89;39.04;100768.31;10301847;28;20109;-68
2023/09/25 16:05:22;;;;;;;2.22;1.10;;;;;;;23.74;39.47;100759.41;10302626;28;20501;-68
2023/09/25 16:10:23;;;;;;;3.20;1.77;;;;;;;23.69;39.02;100757.28;10305049;28;20179;-68
2023/09/25 16:15:25;;;;;;;2.22;0.98;;;;;;;23.46;39.82;100752.94;10303603;28;20053;-68
2023/09/25 16:20:27;;;;;;;2.30;1.40;;;;;;;23.45;40.02;100772.16;10308023;28;20060;-67
2023/09/25 16:25:28;;;;;;;3.55;1.30;;;;;;;23.37;40.39;100773.09;10304192;28;20251;-69
2023/09/25 16:30:30;;;;;;;2.50;1.30;;;;;;;23.22;40.42;100762.31;10303749;28;20057;-70
2023/09/25 16:35:31;;;;;;;3.05;1.20;;;;;;;23.21;41.64;100776.94;10301791;28;20050;-70
2023/09/25 16:40:37;;;;;;;2.80;1.33;;;;;;;23.17;41.67;100777.53;10303853;28;21050;-65
2023/09/25 16:45:38;;;;;;;2.88;1.10;;;;;;;23.11;41.66;100776.41;10301602;28;20063;-65
2023/09/25 16:50:40;;;;;;;2.13;1.20;;;;;;;22.96;41.37;100773.72;10303280;28;20054;-64
2023/09/25 16:55:47;;;;;;;2.13;1.25;;;;;;;22.82;41.84;100761.88;10307935;28;20099;-66
2023/09/25 17:00:48;;;;;;;2.75;1.70;;;;;;;22.67;42.57;100756.50;10302945;28;20109;-66
2023/09/25 17:05:50;;;;;;;3.47;1.65;;;;;;;22.70;42.72;100777.81;10304101;28;22058;-66
2023/09/25 17:10:52;;;;;;;2.13;1.30;;;;;;;22.58;42.67;100772.03;10305159;28;20062;-66
2023/09/25 17:15:53;;;;;;;3.25;1.50;;;;;;;22.48;43.40;100763.34;10307531;28;20144;-66
2023/09/25 17:20:55;;;;;;;3.97;1.83;;;;;;;22.38;43.62;100765.53;10305522;28;20086;-68
2023/09/25 17:25:58;;;;;;;;;;;;;;;22.35;43.56;100774.03;10308071;28;20460;-65
2023/09/25 17:31:06;;;;;;;2.92;2.20;;;;;;;22.16;44.33;100767.28;10305792;28;20018;-66
2023/09/25 17:36:11;;;;;;;4.85;2.08;;;;;;;22.12;44.49;100772.25;10308138;28;20121;-67
2023/09/25 17:41:14;;;;;;;3.22;2.65;;;;;;;22.07;44.86;100780.09;10352661;28;20123;-67
2023/09/25 17:46:15;;;;;;;4.20;3.00;;;;;;;21.98;45.61;100775.78;10350162;28;20060;-66
2023/09/25 17:51:17;;;;;;;5.00;3.08;;;;;;;21.91;45.84;100782.97;10348959;28;20291;-65
2023/09/25 17:56:18;;;;;;;4.43;3.10;;;;;;;21.85;47.04;100795.41;10353841;28;20060;-65
2023/09/25 18:01:20;;;;;;;4.53;2.50;;;;;;;21.80;46.57;100789.66;10344445;28;20073;-66
2023/09/25 18:06:22;;;;;;;3.72;2.28;;;;;;;21.71;47.43;100797.06;10346674;28;20045;-65
2023/09/25 18:11:23;;;;;;;3.45;2.50;;;;;;;21.66;47.64;100807.59;10302635;28;20105;-68
2023/09/25 18:16:25;;;;;;;4.45;2.65;;;;;;;21.59;47.80;100815.63;10303943;28;20141;-67
2023/09/25 18:21:26;;;;;;;5.43;2.83;;;;;;;21.49;47.78;100807.69;10304166;28;20069;-67
2023/09/25 18:26:29;;;;;;;2.70;2.45;;;;;;;21.34;48.20;100796.81;10301962;28;20050;-66
2023/09/25 18:31:31;;;;;;;4.10;2.50;;;;;;;21.29;48.33;100809.22;10301727;28;20393;-67
2023/09/25 18:36:32;;;;;;;3.35;2.30;;;;;;;21.24;48.23;100817.03;10304809;28;20054;-66
2023/09/25 18:41:34;;;;;;;3.00;2.40;;;;;;;21.17;48.16;100823.16;10300712;28;20061;-67
2023/09/25 18:46:35;;;;;;;3.60;2.30;;;;;;;21.10;48.51;100816.78;10302360;28;20145;-66
2023/09/25 18:51:37;;;;;;;3.85;2.55;;;;;;;20.94;48.19;100800.66;10302210;28;20054;-67
2023/09/25 18:56:38;;;;;;;2.88;2.22;;;;;;;20.96;48.20;100815.69;10295989;28;20134;-66
2023/09/25 19:01:40;;;;;;;3.28;1.77;;;;;;;20.88;48.35;100814.88;10297902;28;21310;-68
2023/09/25 19:06:42;;;;;;;3.20;1.73;;;;;;;20.78;48.07;100809.72;10301286;28;20115;-67
2023/09/25 19:11:43;;;;;;;2.90;1.65;;;;;;;20.76;48.79;100815.31;10304620;28;20057;-67
2023/09/25 19:16:45;;;;;;;2.33;2.08;;;;;;;20.64;48.70;100816.66;10307897;28;20065;-67
2023/09/25 19:21:47;;;;;;;3.22;2.25;;;;;;;20.61;49.28;100822.41;10307983;28;20157;-67
2023/09/25 19:26:50;;;;;;;3.15;2.53;;;;;;;20.48;49.31;100823.00;10307203;28;20049;-69
2023/09/25 19:31:51;;;;;;;3.47;2.47;;;;;;;20.48;49.77;100834.63;10306820;28;20069;-69
2023/09/25 19:36:53;;;;;;;4.03;2.88;;;;;;;20.41;50.23;100832.81;10309405;28;20143;-67
2023/09/25 19:41:55;;;;;;;3.30;2.53;;;;;;;20.36;50.45;100841.44;10321616;28;20073;-67
2023/09/25 19:46:56;;;;;;;4.95;2.67;;;;;;;20.29;51.58;100835.88;10304726;28;20599;-67
2023/09/25 19:51:58;;;;;;;3.10;2.40;;;;;;;20.13;51.50;100817.84;10306746;28;20136;-64
2023/09/25 19:57:04;;;;;;;3.75;2.47;;;;;;;20.15;51.98;100833.91;10312314;28;20068;-62
2023/09/25 20:02:06;;;;;;;3.08;2.60;;;;;;;20.05;52.39;100819.72;10308069;28;20793;-62
2023/09/25 20:07:10;;;;;;;3.72;2.90;;;;;;;20.05;52.82;100834.06;10305462;28;21202;-64
2023/09/25 20:12:12;;;;;;;5.38;2.80;;;;;;;19.96;53.37;100830.53;10313506;28;20381;-61
2023/09/25 20:17:13;;;;;;;4.40;3.10;;;;;;;19.88;53.46;100827.84;10306427;28;20604;-67
2023/09/25 20:22:15;;;;;;;4.65;3.15;;;;;;;19.83;54.91;100829.38;10303639;28;20054;-61
2023/09/25 20:27:17;;;;;;;3.55;3.25;;;;;;;19.75;55.07;100836.44;10299796;28;20060;-62
2023/09/25 20:32:18;;;;;;;3.10;2.78;;;;;;;19.62;55.09;100822.59;10297538;28;20638;-62
2023/09/25 20:37:20;;;;;;;6.18;3.13;;;;;;;19.54;55.65;100822.59;10302908;28;20058;-61
2023/09/25 20:42:21;;;;;;;4.40;3.38;;;;;;;19.48;55.51;100818.72;10301372;28;20100;-68
2023/09/25 20:47:23;;;;;;;4.05;3.10;;;;;;;19.47;56.79;100825.16;10300829;28;20307;-65
2023/09/25 20:52:24;;;;;;;5.43;3.42;;;;;;;19.38;56.05;100820.72;10303611;28;20408;-66
2023/09/25 20:57:26;;;;;;;5.75;3.33;;;;;;;19.27;56.43;100807.56;10301130;28;20061;-67
2023/09/25 21:02:27;;;;;;;2.90;2.50;;;;;;;19.21;56.75;100801.81;10301380;28;20067;-67
2023/09/25 21:07:29;;;;;;;2.40;2.20;;;;;;;19.22;56.27;100810.78;10336174;28;20059;-66
2023/09/25 21:12:30;;;;;;;3.13;1.73;;;;;;;19.12;56.99;100800.13;10340426;28;20049;-66
2023/09/25 21:17:32;;;;;;;3.35;2.42;;;;;;;19.16;56.82;100811.44;10337014;28;20942;-66
2023/09/25 21:22:33;;;;;;;3.88;2.72;;;;;;;19.02;57.11;100807.53;10347738;28;20156;-65
2023/09/25 21:27:35;;;;;;;4.28;2.08;;;;;;;18.98;57.01;100815.13;10344397;28;20195;-67
2023/09/25 21:32:36;;;;;;;2.70;2.42;;;;;;;18.98;56.97;100817.81;10345576;28;20046;-66
2023/09/25 21:37:38;;;;;;;3.00;2.33;;;;;;;18.96;57.83;100821.66;10349169;28;20121;-67
2023/09/25 21:42:39;;;;;;;3.17;2.30;;;;;;;18.90;58.34;100824.03;10334993;28;20121;-67
2023/09/25 21:47:41;;;;;;;2.58;2.38;;;;;;;18.87;58.43;100820.81;10333447;28;20592;-67
2023/09/25 21:52:42;;;;;;;5.00;2.40;;;;;;;18.56;58.39;100775.53;10342266;28;20626;-67
2023/09/25 21:57:44;;;;;;;3.10;2.80;;;;;;;18.73;58.61;100823.13;10341191;28;20842;-66
2023/09/25 22:02:45;;;;;;;2.67;2.03;;;;;;;18.69;58.82;100810.09;10339560;28;20088;-69
2023/09/25 22:07:47;;;;;;;2.80;2.55;;;;;;;18.59;59.06;100812.09;10338675;28;20189;-66
2023/09/25 22:12:49;;;;;;;2.83;2.22;;;;;;;18.48;58.95;100805.13;10337383;28;20835;-66
2023/09/25 22:17:50;;;;;;;2.83;2.13;;;;;;;18.52;59.90;100809.19;10338851;28;20049;-65
2023/09/25 22:22:53;;;;;;;2.60;2.40;;;;;;;18.40;59.67;100797.00;10340970;28;20133;-69
2023/09/25 22:27:55;;;;;;;2.92;2.00;;;;;;;18.33;59.73;100794.97;10338013;28;20060;-67
2023/09/25 22:32:56;;;;;;;4.18;2.40;;;;;;;18.36;59.66;100812.69;10340405;28;20057;-66
2023/09/25 22:38:05;;;;;;;3.50;2.75;;;;;;;18.28;59.97;100789.19;10340437;28;20052;-67
2023/09/25 22:43:08;;;;;;;2.83;2.38;;;;;;;18.26;60.30;100799.31;10343053;28;20061;-67
2023/09/25 22:48:09;;;;;;;3.55;2.47;;;;;;;18.20;60.03;100791.88;10348840;28;20504;-65
2023/09/25 22:53:10;;;;;;;3.33;2.40;;;;;;;18.10;60.15;100785.75;10347930;28;20049;-67
2023/09/25 22:58:12;;;;;;;3.83;2.50;;;;;;;18.08;59.76;100791.28;10350481;28;20042;-67
2023/09/25 23:03:13;;;;;;;3.10;2.33;;;;;;;18.09;61.29;100802.91;10349815;28;20054;-68
2023/09/25 23:08:16;;;;;;;3.40;2.35;;;;;;;17.93;61.90;100799.09;10349458;28;20057;-67
2023/09/25 23:13:18;;;;;;;2.50;2.10;;;;;;;17.87;61.23;100797.03;10348349;28;20065;-67